Time;durP1;ratioP1;P1;durP2;ratioP2;P2;SDS_P1;SDS_P2;PMS_P1;PMS_P2;Temp;Humidity;BMP_temperature;BMP_pressure;BME280_temperature;BME280_humidity;BME280_pressure;Samples;Min_cycle;Max_cycle;Signal;HPM_P1;HPM_P2
2023/02/01 00:00:17;;;;;;;7.37;4.53;;;;;;;5.51;100.00;101676.09;2079297;28;20673;-60
2023/02/01 00:01:17;;;;;;;5.83;4.80;;;;;;;4.92;100.00;101574.38;2086743;28;20187;-60
2023/02/01 00:02:18;;;;;;;7.07;4.50;;;;;;;5.57;100.00;101688.34;2086769;28;20189;-60
2023/02/01 00:03:18;;;;;;;7.33;4.87;;;;;;;5.58;100.00;101683.63;2080397;28;20560;-60
2023/02/01 00:04:19;;;;;;;10.43;4.60;;;;;;;4.82;100.00;101572.28;2079795;28;20253;-60
2023/02/01 00:05:19;;;;;;;7.90;4.53;;;;;;;5.56;100.00;101685.97;2080500;28;20190;-60
2023/02/01 00:06:20;;;;;;;7.90;4.83;;;;;;;5.59;100.00;101688.00;2073453;28;20268;-59
2023/02/01 00:07:20;;;;;;;5.60;4.37;;;;;;;5.55;100.00;101687.91;2077715;28;20177;-60
2023/02/01 00:08:21;;;;;;;6.20;4.60;;;;;;;5.16;100.00;101622.59;2084310;28;20188;-60
2023/02/01 00:09:21;;;;;;;8.07;5.03;;;;;;;5.47;100.00;101696.44;2080934;28;20245;-59
2023/02/01 00:10:22;;;;;;;5.93;4.67;;;;;;;5.34;100.00;101693.13;2078206;28;20173;-60
2023/02/01 00:11:23;;;;;;;6.03;4.40;;;;;;;5.25;100.00;101689.88;2072599;28;20188;-60
2023/02/01 00:12:23;;;;;;;6.15;4.70;;;;;;;4.98;100.00;101647.06;2080498;28;20217;-59
2023/02/01 00:13:24;;;;;;;7.80;4.87;;;;;;;5.22;100.00;101695.28;2079837;28;20988;-59
2023/02/01 00:14:24;;;;;;;6.70;4.50;;;;;;;5.25;100.00;101687.13;2080025;28;20212;-60
2023/02/01 00:15:25;;;;;;;5.87;4.33;;;;;;;5.11;100.00;101678.66;2080516;28;20197;-60
2023/02/01 00:16:28;;;;;;;6.20;4.67;;;;;;;5.18;100.00;101689.75;2079415;28;20675;-60
2023/02/01 00:17:28;;;;;;;7.00;4.55;;;;;;;5.22;100.00;101687.06;2080289;28;20720;-60
2023/02/01 00:18:29;;;;;;;6.20;4.53;;;;;;;5.13;100.00;101683.81;2079839;28;20583;-60
2023/02/01 00:19:29;;;;;;;8.17;4.37;;;;;;;5.00;100.00;101685.97;2079465;28;20169;-59
2023/02/01 00:20:29;;;;;;;8.63;4.90;;;;;;;5.05;100.00;101690.34;2072011;28;20265;-60
2023/02/01 00:21:31;;;;;;;6.90;4.50;;;;;;;4.49;100.00;101601.56;2080139;28;20251;-61
2023/02/01 00:22:31;;;;;;;6.93;4.65;;;;;;;5.03;100.00;101687.94;2080017;28;20192;-60
2023/02/01 00:23:34;;;;;;;6.57;4.77;;;;;;;4.96;100.00;101684.31;2079613;28;20272;-60
2023/02/01 00:24:34;;;;;;;7.88;4.95;;;;;;;4.93;100.00;101685.06;2074637;28;20208;-60
2023/02/01 00:25:34;;;;;;;6.83;4.93;;;;;;;4.88;100.00;101688.88;2079426;28;20200;-59
2023/02/01 00:26:43;;;;;;;9.33;5.10;;;;;;;4.36;100.00;101602.94;2081891;28;20173;-60
2023/02/01 00:27:48;;;;;;;5.47;4.35;;;;;;;4.25;100.00;101602.75;2081571;28;20673;-60
2023/02/01 00:28:49;;;;;;;7.68;4.95;;;;;;;4.74;100.00;101685.13;2085033;28;20177;-60
2023/02/01 00:29:49;;;;;;;6.83;4.70;;;;;;;4.04;100.00;101585.09;2072401;28;20174;-60
2023/02/01 00:30:59;;;;;;;8.03;4.50;;;;;;;4.15;100.00;101617.06;2080650;28;20213;-60
2023/02/01 00:32:00;;;;;;;7.55;4.75;;;;;;;4.69;100.00;101702.72;2079805;28;20255;-60
2023/02/01 00:33:00;;;;;;;6.33;4.63;;;;;;;3.77;100.00;101567.00;2080509;28;20205;-60
2023/02/01 00:34:00;;;;;;;7.47;4.83;;;;;;;4.60;100.00;101695.88;2080135;28;20195;-59
2023/02/01 00:35:01;;;;;;;5.50;4.63;;;;;;;4.60;100.00;101702.16;2086161;28;20263;-60
2023/02/01 00:36:04;;;;;;;6.60;4.70;;;;;;;4.04;100.00;101616.09;2081098;28;20191;-60
2023/02/01 00:37:05;;;;;;;7.65;4.78;;;;;;;4.61;100.00;101698.25;2079983;28;20618;-61
2023/02/01 00:38:05;;;;;;;5.73;4.60;;;;;;;4.33;100.00;101653.06;2077422;28;20191;-60
2023/02/01 00:39:06;;;;;;;6.30;4.40;;;;;;;3.89;100.00;101586.00;2073749;28;20552;-60
2023/02/01 00:40:08;;;;;;;7.90;4.77;;;;;;;4.60;100.00;101695.88;2079226;28;20177;-60
2023/02/01 00:41:18;;;;;;;6.82;4.50;;;;;;;4.55;100.00;101694.22;2079448;28;20177;-59
2023/02/01 00:42:18;;;;;;;6.20;4.75;;;;;;;4.58;100.00;101693.50;2075458;28;20572;-59
2023/02/01 00:43:18;;;;;;;7.67;4.47;;;;;;;4.39;100.00;101670.78;2072667;28;20185;-60
2023/02/01 00:44:19;;;;;;;6.83;5.40;;;;;;;4.18;100.00;101632.00;2078532;28;20227;-60
2023/02/01 00:45:19;;;;;;;8.07;4.70;;;;;;;3.92;100.00;101605.28;2079642;28;20545;-60
2023/02/01 00:46:21;;;;;;;8.67;5.03;;;;;;;4.49;100.00;101687.47;2079213;28;20192;-60
2023/02/01 00:47:21;;;;;;;8.52;4.60;;;;;;;4.47;100.00;101697.22;2080256;28;20188;-60
2023/02/01 00:48:22;;;;;;;6.97;4.93;;;;;;;4.44;100.00;101685.03;2080139;28;20315;-60
2023/02/01 00:49:22;;;;;;;7.67;4.63;;;;;;;4.43;100.00;101686.19;2080066;28;20177;-60
2023/02/01 00:50:23;;;;;;;7.10;4.73;;;;;;;4.47;100.00;101684.28;2079463;28;20188;-60
2023/02/01 00:51:26;;;;;;;7.10;4.80;;;;;;;4.04;100.00;101631.72;2089590;28;20728;-60
2023/02/01 00:52:26;;;;;;;7.80;5.07;;;;;;;4.44;100.00;101695.19;2082018;28;20235;-59
2023/02/01 00:53:27;;;;;;;5.70;4.40;;;;;;;3.98;100.00;101619.47;2087000;28;20188;-60
2023/02/01 00:54:27;;;;;;;7.00;5.07;;;;;;;4.45;100.00;101689.34;2084579;28;20247;-60
2023/02/01 00:55:28;;;;;;;6.50;4.80;;;;;;;4.33;100.00;101669.50;2085284;28;20225;-60
2023/02/01 00:56:28;;;;;;;9.33;4.80;;;;;;;4.50;100.00;101689.03;2086051;28;20480;-60
2023/02/01 00:57:29;;;;;;;7.80;4.73;;;;;;;4.55;100.00;101698.91;2082527;28;20767;-60
2023/02/01 00:58:29;;;;;;;6.13;4.40;;;;;;;4.54;100.00;101692.66;2088817;28;20175;-60
2023/02/01 00:59:29;;;;;;;8.77;4.90;;;;;;;4.51;100.00;101692.59;2082073;28;20196;-60
2023/02/01 01:00:30;;;;;;;6.33;4.80;;;;;;;4.44;100.00;101686.97;2077614;28;20884;-60
2023/02/01 01:01:30;;;;;;;7.07;4.70;;;;;;;4.34;100.00;101682.88;2081615;28;20705;-59
2023/02/01 01:02:31;;;;;;;8.50;4.80;;;;;;;4.47;100.00;101688.97;2082731;28;20386;-60
2023/02/01 01:03:34;;;;;;;7.60;4.80;;;;;;;4.45;100.00;101691.28;2081100;28;20184;-60
2023/02/01 01:04:34;;;;;;;8.63;5.20;;;;;;;4.49;100.00;101695.69;2081752;28;20176;-60
2023/02/01 01:05:34;;;;;;;7.50;5.10;;;;;;;4.47;100.00;101695.25;2081518;28;20177;-60
2023/02/01 01:06:35;;;;;;;10.63;4.93;;;;;;;4.48;100.00;101698.78;2081168;28;20180;-60
2023/02/01 01:07:35;;;;;;;8.10;4.33;;;;;;;3.78;100.00;101596.00;2085318;28;20669;-60
2023/02/01 01:08:37;;;;;;;9.23;4.20;;;;;;;4.35;100.00;101700.91;2081667;28;20184;-59
2023/02/01 01:09:38;;;;;;;7.13;4.35;;;;;;;4.35;100.00;101694.63;2087791;28;20190;-60
2023/02/01 01:10:39;;;;;;;6.93;3.90;;;;;;;3.82;100.00;101610.56;2084721;28;20201;-60
2023/02/01 01:11:39;;;;;;;7.17;4.20;;;;;;;3.82;100.00;101625.06;2085931;28;20189;-60
2023/02/01 01:12:40;;;;;;;6.13;4.10;;;;;;;4.29;100.00;101687.84;2085052;28;20204;-59
2023/02/01 01:13:41;;;;;;;7.27;4.03;;;;;;;4.37;100.00;101687.63;2082541;28;20576;-60
2023/02/01 01:14:42;;;;;;;7.03;4.40;;;;;;;4.38;100.00;101685.69;2081391;28;20453;-60
2023/02/01 01:15:42;;;;;;;7.20;4.47;;;;;;;3.94;100.00;101602.97;2081352;28;20362;-60
2023/02/01 01:16:42;;;;;;;6.87;4.17;;;;;;;4.35;100.00;101678.97;2080558;28;20225;-60
2023/02/01 01:17:43;;;;;;;6.37;4.30;;;;;;;4.36;100.00;101688.78;2081848;28;20192;-60
2023/02/01 01:18:43;;;;;;;7.10;4.13;;;;;;;4.28;100.00;101678.03;2081566;28;20654;-60
2023/02/01 01:19:44;;;;;;;6.13;4.37;;;;;;;4.36;100.00;101674.28;2081130;28;20196;-60
2023/02/01 01:20:44;;;;;;;8.73;4.30;;;;;;;4.38;100.00;101669.22;2080862;28;20597;-60
2023/02/01 01:21:44;;;;;;;5.50;4.30;;;;;;;3.98;100.00;101608.50;2080341;28;20187;-60
2023/02/01 01:22:45;;;;;;;6.60;4.17;;;;;;;4.22;100.00;101650.13;2081548;28;20513;-60
2023/02/01 01:23:46;;;;;;;6.60;4.10;;;;;;;4.36;100.00;101660.56;2081683;28;20204;-60
2023/02/01 01:24:47;;;;;;;6.18;3.90;;;;;;;4.38;100.00;101671.97;2081731;28;20188;-59
2023/02/01 01:25:47;;;;;;;5.93;3.90;;;;;;;3.55;100.00;101551.31;2080423;28;20192;-60
2023/02/01 01:26:47;;;;;;;5.90;3.77;;;;;;;4.38;100.00;101671.97;2075546;28;20202;-60
2023/02/01 01:27:48;;;;;;;9.00;3.60;;;;;;;4.02;100.00;101620.34;2078090;28;20206;-59
2023/02/01 01:28:49;;;;;;;6.27;3.87;;;;;;;4.41;100.00;101680.25;2078389;28;20672;-60
2023/02/01 01:29:50;;;;;;;6.50;3.63;;;;;;;4.28;100.00;101656.91;2072653;28;20172;-59
2023/02/01 01:30:50;;;;;;;5.83;3.67;;;;;;;3.57;100.00;101566.25;2078637;28;20180;-60
2023/02/01 01:31:51;;;;;;;5.63;3.50;;;;;;;4.32;100.00;101685.16;2081707;28;20598;-60
2023/02/01 01:32:52;;;;;;;6.37;3.70;;;;;;;4.38;100.00;101685.69;2078365;28;20223;-59
2023/02/01 01:33:55;;;;;;;7.32;3.90;;;;;;;4.37;100.00;101676.63;2081614;28;20672;-59
2023/02/01 01:34:55;;;;;;;6.55;3.65;;;;;;;4.38;100.00;101677.44;2076725;28;20181;-60
2023/02/01 01:35:56;;;;;;;8.60;3.73;;;;;;;3.76;100.00;101581.88;2080912;28;20194;-60
2023/02/01 01:36:56;;;;;;;7.27;3.80;;;;;;;4.11;100.00;101660.09;2077052;28;20566;-60
2023/02/01 01:37:58;;;;;;;6.23;3.93;;;;;;;3.57;100.00;101557.22;2075855;28;20211;-61
2023/02/01 01:38:58;;;;;;;6.57;3.70;;;;;;;3.90;100.00;101602.09;2075240;28;20259;-59
2023/02/01 01:39:59;;;;;;;6.33;3.67;;;;;;;4.49;100.00;101673.75;2080754;28;20191;-60
2023/02/01 01:40:59;;;;;;;7.03;4.13;;;;;;;4.05;100.00;101631.38;2090152;28;20175;-60
2023/02/01 01:42:00;;;;;;;6.53;3.73;;;;;;;3.68;100.00;101602.88;2081830;28;20188;-60
2023/02/01 01:43:00;;;;;;;5.80;3.83;;;;;;;3.62;100.00;101568.69;2081604;28;20289;-60
2023/02/01 01:44:06;;;;;;;6.63;3.63;;;;;;;4.39;100.00;101690.00;2080649;28;20196;-60
2023/02/01 01:45:12;;;;;;;7.03;4.03;;;;;;;3.84;100.00;101587.09;2086586;28;20218;-60
2023/02/01 01:46:19;;;;;;;8.13;4.20;;;;;;;3.98;100.00;101620.28;2084043;28;20233;-60
2023/02/01 01:47:20;;;;;;;8.32;4.40;;;;;;;4.35;100.00;101669.94;2085734;28;20771;-60
2023/02/01 01:48:30;;;;;;;7.83;4.37;;;;;;;4.47;100.00;101691.72;2081254;28;20196;-59
2023/02/01 01:49:31;;;;;;;7.75;4.05;;;;;;;3.94;100.00;101613.94;2083738;28;20214;-60
2023/02/01 01:50:39;;;;;;;6.40;3.80;;;;;;;4.40;100.00;101667.69;2086526;28;20168;-60
2023/02/01 01:51:52;;;;;;;6.75;4.07;;;;;;;4.47;100.00;101688.97;2083249;28;20269;-60
2023/02/01 01:52:55;;;;;;;7.18;3.72;;;;;;;4.50;100.00;101674.50;2085406;28;20193;-59
2023/02/01 01:54:21;;;;;;;6.15;3.80;;;;;;;4.56;100.00;101684.81;2081079;28;20177;-60
2023/02/01 01:55:24;;;;;;;5.20;3.75;;;;;;;4.48;100.00;101688.63;2081062;28;20219;-60
2023/02/01 01:56:26;;;;;;;6.50;3.70;;;;;;;4.31;100.00;101655.38;2083489;28;20659;-60
2023/02/01 01:57:31;;;;;;;6.93;3.47;;;;;;;4.35;100.00;101684.47;2086902;28;20182;-60
2023/02/01 01:58:33;;;;;;;7.50;3.60;;;;;;;4.51;100.00;101687.09;2074731;28;20177;-59
2023/02/01 01:59:38;;;;;;;4.88;3.33;;;;;;;4.58;100.00;101682.53;2080876;28;20740;-60
2023/02/01 02:00:39;;;;;;;5.07;3.17;;;;;;;4.54;100.00;101692.66;2086874;28;20180;-60
2023/02/01 02:01:40;;;;;;;7.68;3.90;;;;;;;4.54;100.00;101686.34;2089303;28;20187;-59
2023/02/01 02:02:43;;;;;;;5.80;3.70;;;;;;;4.03;100.00;101589.00;2082256;28;20216;-60
2023/02/01 02:03:47;;;;;;;5.75;3.30;;;;;;;4.71;100.00;101692.16;2081952;28;20200;-59
2023/02/01 02:04:48;;;;;;;6.45;3.40;;;;;;;4.74;100.00;101693.38;2080633;28;20856;-59
2023/02/01 02:05:50;;;;;;;5.43;3.23;;;;;;;4.08;100.00;101588.72;2076123;28;20688;-60
2023/02/01 02:07:00;;;;;;;7.00;3.78;;;;;;;4.79;100.00;101693.88;2075250;28;20238;-59
2023/02/01 02:08:00;;;;;;;5.53;3.40;;;;;;;4.56;100.00;101657.38;2081054;28;20200;-60
2023/02/01 02:09:01;;;;;;;4.30;3.33;;;;;;;4.88;100.00;101702.63;2081525;28;20174;-59
2023/02/01 02:10:05;;;;;;;6.53;3.47;;;;;;;4.90;100.00;101699.50;2079071;28;20595;-59
2023/02/01 02:11:06;;;;;;;5.95;3.20;;;;;;;4.78;100.00;101681.28;2073549;28;20180;-60
2023/02/01 02:12:06;;;;;;;5.20;3.40;;;;;;;4.87;100.00;101697.53;2081189;28;20664;-60
2023/02/01 02:13:07;;;;;;;5.07;3.20;;;;;;;5.01;100.00;101705.97;2078187;28;20303;-60
2023/02/01 02:14:11;;;;;;;5.20;3.13;;;;;;;4.61;100.00;101634.34;2078894;28;20184;-60
2023/02/01 02:15:15;;;;;;;4.82;3.22;;;;;;;4.46;100.00;101616.03;2075219;28;20298;-59
2023/02/01 02:16:39;;;;;;;6.93;3.40;;;;;;;5.01;100.00;101703.22;2077403;28;20695;-59
2023/02/01 02:18:11;;;;;;;6.47;2.95;;;;;;;4.60;100.00;101633.53;2081229;28;20186;-59
2023/02/01 02:19:36;;;;;;;5.82;3.00;;;;;;;5.10;100.00;101740.28;2072666;28;20203;-60
2023/02/01 02:20:58;;;;;;;5.13;3.13;;;;;;;5.11;100.00;101713.59;2076903;28;20648;-60
2023/02/01 02:22:10;;;;;;;7.60;3.22;;;;;;;5.10;100.00;101701.81;2081135;28;20248;-60
2023/02/01 02:23:49;;;;;;;5.03;2.83;;;;;;;5.05;100.00;101702.13;2080633;28;20703;-60
2023/02/01 02:24:50;;;;;;;5.03;3.00;;;;;;;5.01;100.00;101714.22;2073112;28;20204;-59
2023/02/01 02:26:08;;;;;;;5.20;2.93;;;;;;;5.06;100.00;101705.66;2072597;28;20492;-60
2023/02/01 02:27:29;;;;;;;6.22;3.55;;;;;;;5.08;100.00;101715.13;2073259;28;20250;-60
2023/02/01 02:28:48;;;;;;;5.28;2.75;;;;;;;4.98;100.00;101713.00;2071700;28;20715;-60
2023/02/01 02:30:07;;;;;;;5.90;3.08;;;;;;;5.00;100.00;101707.13;2077470;28;20197;-60
2023/02/01 02:31:45;;;;;;;5.03;3.47;;;;;;;5.00;100.00;101705.19;2076601;28;20188;-60
2023/02/01 02:33:13;;;;;;;5.78;3.10;;;;;;;4.69;100.00;101660.72;2073766;28;20797;-60
2023/02/01 02:34:34;;;;;;;4.90;2.83;;;;;;;5.10;100.00;101706.50;2076651;28;20652;-60
2023/02/01 02:35:45;;;;;;;5.32;3.13;;;;;;;4.64;100.00;101637.13;2081076;28;20567;-59
2023/02/01 02:36:56;;;;;;;4.13;3.10;;;;;;;5.15;100.00;101706.19;2080447;28;20279;-60
2023/02/01 02:38:15;;;;;;;6.65;3.20;;;;;;;5.18;100.00;101703.50;2088402;28;20185;-60
2023/02/01 02:39:22;;;;;;;5.18;3.03;;;;;;;5.10;100.00;101698.25;2086225;28;20196;-60
2023/02/01 02:40:32;;;;;;;4.00;2.88;;;;;;;5.08;100.00;101697.84;2080295;28;20190;-59
2023/02/01 02:47:50;;;;;;;3.92;2.55;;;;;;;5.14;100.00;101677.91;2075941;28;20187;-59
2023/02/01 02:49:22;;;;;;;5.15;3.10;;;;;;;5.16;100.00;101683.84;2088034;28;20197;-60
2023/02/01 02:55:11;;;;;;;7.03;3.22;;;;;;;5.07;100.00;101679.78;2076695;28;20181;-60
2023/02/01 03:04:20;;;;;;;5.80;3.45;;;;;;;5.32;100.00;101686.41;2083230;28;20198;-60
2023/02/01 03:05:21;;;;;;;6.38;4.15;;;;;;;4.74;100.00;101602.75;2080982;28;20191;-60
2023/02/01 03:06:23;;;;;;;6.93;3.50;;;;;;;5.29;100.00;101682.44;2080482;28;20702;-59
2023/02/01 03:07:42;;;;;;;5.35;3.65;;;;;;;5.33;100.00;101679.78;2087824;28;20229;-60
2023/02/01 03:08:45;;;;;;;5.10;3.45;;;;;;;5.36;100.00;101679.81;2081835;28;20673;-60
2023/02/01 03:09:49;;;;;;;7.10;3.70;;;;;;;5.33;100.00;101675.06;2087632;28;20181;-59
2023/02/01 03:11:06;;;;;;;5.85;3.30;;;;;;;5.40;100.00;101669.69;2080298;28;20267;-60
2023/02/01 03:13:12;;;;;;;5.13;3.45;;;;;;;5.50;100.00;101679.22;2072357;28;20169;-59
2023/02/01 03:14:02;;;;;;;6.03;3.75;;;;;;;5.34;100.00;101640.91;2077192;28;20207;-59
2023/02/01 03:15:12;;;;;;;4.93;2.97;;;;;;;5.51;100.00;101664.31;2080458;28;20217;-59
2023/02/01 03:16:26;;;;;;;5.95;3.38;;;;;;;5.54;100.00;101661.59;2079684;28;20211;-60
2023/02/01 03:17:34;;;;;;;5.43;3.30;;;;;;;5.11;100.00;101603.69;2073591;28;20198;-60
2023/02/01 03:18:46;;;;;;;6.38;3.50;;;;;;;5.36;100.00;101629.53;2077765;28;20180;-60
2023/02/01 03:19:50;;;;;;;4.90;3.15;;;;;;;5.47;100.00;101644.22;2079782;28;20203;-60
2023/02/01 03:20:55;;;;;;;5.70;3.08;;;;;;;5.45;100.00;101630.06;2080761;28;20192;-60
2023/02/01 03:22:06;;;;;;;5.75;3.10;;;;;;;5.03;100.00;101583.56;2080689;28;20200;-60
2023/02/01 03:23:07;;;;;;;6.97;3.70;;;;;;;5.61;100.00;101667.19;2075344;28;20625;-60
2023/02/01 03:24:17;;;;;;;5.82;3.13;;;;;;;5.60;100.00;101670.31;2080042;28;20219;-60
2023/02/01 03:25:25;;;;;;;8.93;3.60;;;;;;;5.56;100.00;101672.22;2080883;28;20263;-60
2023/02/01 03:26:29;;;;;;;7.70;4.20;;;;;;;5.21;100.00;101603.84;2073727;28;20199;-60
2023/02/01 03:27:42;;;;;;;5.32;3.05;;;;;;;5.26;100.00;101619.19;2071956;28;20232;-60
2023/02/01 03:28:49;;;;;;;6.68;3.80;;;;;;;5.65;100.00;101672.75;2077556;28;20242;-59
2023/02/01 03:29:52;;;;;;;4.82;3.22;;;;;;;5.68;100.00;101667.28;2080031;28;20719;-60
2023/02/01 03:30:53;;;;;;;5.35;3.47;;;;;;;5.51;100.00;101659.59;2076250;28;20208;-60
2023/02/01 03:31:53;;;;;;;5.57;3.70;;;;;;;5.15;100.00;101610.81;2074469;28;20195;-60
2023/02/01 03:32:59;;;;;;;7.23;3.50;;;;;;;5.55;100.00;101674.16;2087332;28;20302;-60
2023/02/01 03:33:59;;;;;;;7.15;3.83;;;;;;;5.53;100.00;101664.75;2084760;28;20186;-60
2023/02/01 03:35:00;;;;;;;6.63;3.60;;;;;;;5.47;100.00;101655.22;2071983;28;20301;-60
2023/02/01 03:36:19;;;;;;;5.57;3.40;;;;;;;5.59;100.00;101675.00;2080279;28;20184;-60
2023/02/01 03:37:28;;;;;;;5.22;3.40;;;;;;;5.53;100.00;101665.50;2072827;28;20614;-60
2023/02/01 03:38:47;;;;;;;6.00;3.47;;;;;;;5.63;100.00;101673.09;2080842;28;20654;-60
2023/02/01 03:39:53;;;;;;;5.60;3.35;;;;;;;5.55;100.00;101674.16;2086439;28;20190;-60
2023/02/01 03:41:03;;;;;;;5.13;2.90;;;;;;;5.54;100.00;101666.31;2082009;28;20171;-60
2023/02/01 03:42:13;;;;;;;5.93;3.63;;;;;;;5.55;100.00;101670.66;2085459;28;20656;-60
2023/02/01 03:43:18;;;;;;;6.38;3.55;;;;;;;4.77;100.00;101542.38;2081230;28;20172;-60
2023/02/01 03:44:28;;;;;;;6.03;3.55;;;;;;;5.58;100.00;101673.44;2079266;28;20222;-60
2023/02/01 03:45:40;;;;;;;6.38;3.50;;;;;;;5.69;100.00;101676.34;2072741;28;20597;-60
2023/02/01 03:46:48;;;;;;;7.70;3.50;;;;;;;5.68;100.00;101667.28;2077326;28;20207;-60
2023/02/01 03:47:53;;;;;;;6.03;3.60;;;;;;;5.69;100.00;101673.59;2072323;28;20166;-60
2023/02/01 03:48:55;;;;;;;6.20;3.17;;;;;;;5.52;100.00;101644.69;2080454;28;20224;-60
2023/02/01 03:50:01;;;;;;;7.07;3.80;;;;;;;5.71;100.00;101666.53;2080102;28;20593;-60
2023/02/01 03:51:05;;;;;;;4.93;3.50;;;;;;;5.51;100.00;101639.56;2073809;28;20297;-60
2023/02/01 03:52:09;;;;;;;7.07;3.85;;;;;;;5.70;100.00;101670.44;2080164;28;20247;-60
2023/02/01 03:53:16;;;;;;;6.68;3.40;;;;;;;5.67;100.00;101664.91;2073329;28;20662;-60
2023/02/01 03:54:18;;;;;;;6.53;3.40;;;;;;;4.99;100.00;101570.94;2079727;28;20378;-60
2023/02/01 03:55:23;;;;;;;6.75;3.30;;;;;;;5.63;100.00;101666.81;2073870;28;20206;-60
2023/02/01 03:56:27;;;;;;;7.22;3.40;;;;;;;5.34;100.00;101624.41;2078479;28;20230;-60
2023/02/01 03:57:33;;;;;;;8.13;3.25;;;;;;;5.70;100.00;101666.91;2079854;28;20673;-60
2023/02/01 03:58:33;;;;;;;6.65;3.17;;;;;;;5.60;100.00;101667.56;2080212;28;20190;-60
2023/02/01 03:59:37;;;;;;;6.00;3.53;;;;;;;5.66;100.00;101660.56;2079862;28;20229;-60
2023/02/01 04:00:38;;;;;;;6.15;3.38;;;;;;;5.53;100.00;101646.28;2082556;28;20258;-59
2023/02/01 04:01:38;;;;;;;8.23;3.57;;;;;;;5.66;100.00;101669.63;2087068;28;20179;-60
2023/02/01 04:02:39;;;;;;;6.80;3.00;;;;;;;5.68;100.00;101678.28;2080503;28;20167;-60
2023/02/01 04:03:39;;;;;;;6.43;3.47;;;;;;;5.17;100.00;101593.94;2085086;28;20287;-59
2023/02/01 04:04:39;;;;;;;7.57;3.13;;;;;;;5.57;100.00;101671.06;2080002;28;20225;-59
2023/02/01 04:05:40;;;;;;;5.43;3.30;;;;;;;5.56;100.00;101652.97;2086337;28;20223;-60
2023/02/01 04:06:40;;;;;;;7.73;3.43;;;;;;;4.98;100.00;101561.13;2083015;28;20199;-60
2023/02/01 04:07:41;;;;;;;8.20;3.20;;;;;;;5.63;100.00;101670.34;2080373;28;20205;-60
2023/02/01 04:08:41;;;;;;;6.40;3.40;;;;;;;5.57;100.00;101671.06;2077120;28;20627;-60
2023/02/01 04:09:42;;;;;;;5.03;3.00;;;;;;;5.50;100.00;101682.78;2076603;28;20191;-60
2023/02/01 04:10:43;;;;;;;5.83;3.23;;;;;;;5.52;100.00;101669.44;2079387;28;20210;-60
2023/02/01 04:11:43;;;;;;;7.20;3.60;;;;;;;5.29;100.00;101646.72;2071839;28;20180;-60
2023/02/01 04:12:44;;;;;;;6.10;3.27;;;;;;;5.55;100.00;101678.91;2079478;28;20265;-60
2023/02/01 04:13:44;;;;;;;5.63;2.80;;;;;;;5.60;100.00;101670.31;2076961;28;20195;-60
2023/02/01 04:14:45;;;;;;;6.90;3.27;;;;;;;5.57;100.00;101662.81;2079704;28;20210;-60
2023/02/01 04:15:49;;;;;;;6.10;3.30;;;;;;;5.55;100.00;101665.91;2080146;28;20200;-60
2023/02/01 04:16:50;;;;;;;6.75;3.08;;;;;;;4.89;100.00;101560.59;2079974;28;20198;-60
2023/02/01 04:17:50;;;;;;;4.83;3.10;;;;;;;5.24;100.00;101616.81;2080320;28;20193;-59
2023/02/01 04:18:51;;;;;;;5.37;2.97;;;;;;;5.65;100.00;101675.50;2079728;28;20562;-60
2023/02/01 04:19:51;;;;;;;5.80;2.80;;;;;;;5.56;100.00;101647.47;2079730;28;20708;-60
2023/02/01 04:20:51;;;;;;;6.67;3.57;;;;;;;5.72;100.00;101672.81;2072884;28;20616;-60
2023/02/01 04:21:52;;;;;;;6.50;3.00;;;;;;;5.72;100.00;101689.31;2078826;28;20215;-60
2023/02/01 04:22:52;;;;;;;5.80;2.90;;;;;;;5.36;100.00;101622.09;2079927;28;20199;-60
2023/02/01 04:23:53;;;;;;;6.17;3.17;;;;;;;5.60;100.00;101664.81;2080220;28;20727;-59
2023/02/01 04:24:54;;;;;;;6.80;3.10;;;;;;;5.14;100.00;101598.22;2078092;28;20284;-59
2023/02/01 04:26:00;;;;;;;6.70;3.17;;;;;;;5.72;100.00;101690.13;2072547;28;20184;-60
2023/02/01 04:27:02;;;;;;;5.90;2.90;;;;;;;5.63;100.00;101686.84;2072781;28;20599;-60
2023/02/01 04:28:03;;;;;;;5.30;3.05;;;;;;;5.79;100.00;101684.69;2080881;28;20709;-60
2023/02/01 04:29:03;;;;;;;5.03;3.10;;;;;;;5.82;100.00;101683.19;2082201;28;20557;-60
2023/02/01 04:30:04;;;;;;;6.37;3.40;;;;;;;5.67;100.00;101659.41;2081577;28;20193;-60
2023/02/01 04:33:05;;;;;;;6.82;3.63;;;;;;;5.57;100.00;101632.56;2078390;28;20215;-60
2023/02/01 04:34:05;;;;;;;5.95;3.45;;;;;;;5.83;100.00;101666.31;2078105;28;20729;-59
2023/02/01 04:35:07;;;;;;;5.47;3.03;;;;;;;5.66;100.00;101638.56;2082074;28;20687;-60
2023/02/01 04:36:07;;;;;;;6.82;3.45;;;;;;;5.93;100.00;101681.34;2079468;28;20183;-60
2023/02/01 04:37:08;;;;;;;5.73;3.40;;;;;;;5.97;100.00;101701.44;2080932;28;20657;-60
2023/02/01 04:38:08;;;;;;;6.30;3.57;;;;;;;6.00;100.00;101679.47;2081951;28;20244;-60
2023/02/01 04:39:09;;;;;;;7.73;3.90;;;;;;;5.99;100.00;101686.16;2079817;28;20196;-60
2023/02/01 04:40:10;;;;;;;5.95;3.33;;;;;;;5.97;100.00;101688.50;2081161;28;20189;-60
2023/02/01 04:41:11;;;;;;;5.60;2.80;;;;;;;5.90;100.00;101674.66;2081162;28;20208;-60
2023/02/01 04:42:12;;;;;;;7.07;3.40;;;;;;;5.86;100.00;101678.53;2081713;28;20179;-59
2023/02/01 04:43:12;;;;;;;6.30;3.13;;;;;;;5.47;100.00;101619.47;2078754;28;20197;-60
2023/02/01 04:44:15;;;;;;;5.90;3.43;;;;;;;5.55;100.00;101634.91;2081083;28;20187;-60
2023/02/01 04:45:16;;;;;;;4.97;3.35;;;;;;;5.88;100.00;101700.94;2088819;28;20228;-60
2023/02/01 04:46:16;;;;;;;7.97;3.90;;;;;;;5.83;100.00;101685.56;2080514;28;20192;-60
2023/02/01 04:47:16;;;;;;;7.27;3.33;;;;;;;5.47;100.00;101628.53;2090208;28;20650;-60
2023/02/01 04:48:18;;;;;;;9.07;3.80;;;;;;;5.86;100.00;101690.34;2082384;28;20226;-59
2023/02/01 04:49:21;;;;;;;8.02;3.65;;;;;;;5.85;100.00;101690.72;2081783;28;20196;-60
2023/02/01 04:50:23;;;;;;;8.98;3.65;;;;;;;5.81;100.00;101690.66;2080614;28;20194;-60
2023/02/01 04:51:23;;;;;;;5.68;3.20;;;;;;;5.80;100.00;101707.53;2086146;28;20234;-60
2023/02/01 04:52:24;;;;;;;7.60;4.10;;;;;;;5.78;100.00;101691.38;2086672;28;20675;-60
2023/02/01 04:53:25;;;;;;;6.00;3.50;;;;;;;5.81;100.00;101700.88;2079752;28;20274;-60
2023/02/01 04:54:25;;;;;;;7.60;4.40;;;;;;;4.81;100.00;101536.94;2079794;28;20567;-60
2023/02/01 04:55:26;;;;;;;6.23;3.40;;;;;;;5.81;100.00;101687.13;2081788;28;20191;-60
2023/02/01 04:56:26;;;;;;;8.00;3.70;;;;;;;5.69;100.00;101674.34;2072718;28;20595;-60
2023/02/01 04:57:26;;;;;;;6.97;3.80;;;;;;;5.69;100.00;101690.84;2087209;28;20233;-60
2023/02/01 04:58:27;;;;;;;5.47;3.43;;;;;;;5.75;100.00;101692.09;2078714;28;20217;-60
2023/02/01 04:59:28;;;;;;;7.73;3.80;;;;;;;5.74;100.00;101698.78;2079735;28;20199;-60
2023/02/01 05:00:29;;;;;;;6.75;3.30;;;;;;;5.34;100.00;101620.88;2077843;28;20197;-60
2023/02/01 05:01:29;;;;;;;5.93;3.50;;;;;;;5.82;100.00;101694.19;2073784;28;20219;-60
2023/02/01 05:02:32;;;;;;;6.17;3.17;;;;;;;5.82;100.00;101691.44;2080327;28;20238;-60
2023/02/01 05:03:33;;;;;;;5.70;3.40;;;;;;;5.75;100.00;101700.38;2080343;28;20670;-60
2023/02/01 05:04:33;;;;;;;6.68;3.40;;;;;;;5.79;100.00;101698.47;2081553;28;20192;-60
2023/02/01 05:05:34;;;;;;;8.33;3.27;;;;;;;5.82;100.00;101703.25;2081217;28;20180;-60
2023/02/01 05:06:34;;;;;;;7.77;3.73;;;;;;;5.86;100.00;101701.34;2079051;28;20227;-59
2023/02/01 05:07:35;;;;;;;7.60;3.50;;;;;;;5.85;100.00;101701.72;2080013;28;20242;-60
2023/02/01 05:08:36;;;;;;;7.20;3.23;;;;;;;5.06;100.00;101587.50;2080431;28;20227;-60
2023/02/01 05:09:36;;;;;;;6.13;3.73;;;;;;;5.45;100.00;101663.03;2080110;28;20662;-60
2023/02/01 05:10:36;;;;;;;6.40;3.63;;;;;;;5.76;100.00;101701.16;2081162;28;20305;-59
2023/02/01 05:14:15;;;;;;;8.75;3.40;;;;;;;5.73;100.00;101699.97;2079688;28;20201;-59
2023/02/01 05:15:15;;;;;;;6.43;3.47;;;;;;;5.34;100.00;101626.38;2079580;28;20180;-60
2023/02/01 05:16:16;;;;;;;6.83;3.30;;;;;;;5.09;100.00;101590.34;2079744;28;20628;-60
2023/02/01 05:17:17;;;;;;;6.33;3.60;;;;;;;5.33;100.00;101627.56;2080818;28;20659;-60
2023/02/01 05:18:17;;;;;;;7.20;3.73;;;;;;;5.60;100.00;101673.06;2083808;28;20250;-59
2023/02/01 05:19:17;;;;;;;6.57;3.33;;;;;;;5.79;100.00;101694.94;2082144;28;20185;-60
2023/02/01 05:20:18;;;;;;;7.50;3.57;;;;;;;5.71;100.00;101682.25;2079091;28;20199;-60